Flight Track Log - Related Links

Times and Time Zones

All times are in EDT time to prevent confusion due to time zone crossing. See the N9228V flight status page for this flight to view local times or setup timezone preferences in your user account.


Time Position Orientation Groundspeed Altitude Reporting Facility
EDT Latitude Longitude Course Direction KTS MPH feet Rate Location/Type
Sun 08:27:42 AM 40.1167 -85.2500 67° East 159 183 3,400  Level Indianapolis TRACON
Sun 08:28:42 AM 40.1500 -85.2833 323° Northwest 124 143 2,900 -250 Descending Indianapolis TRACON
Sun 08:29:42 AM 40.1667 -85.3000 323° Northwest 106 122 2,900 -250 Level Indianapolis TRACON
Sun 08:30:42 AM 40.1833 -85.3167 323° Northwest 92 106 2,400 -286 Descending Indianapolis TRACON
Sun 08:31:48 AM 40.2000 -85.3333 323° Northwest 89 102 2,300 -32 Descending Indianapolis TRACON
Sun 08:33:00 AM 40.3447 -85.0821 67° East  Level FlightAware Approximate
Sun 08:33:48 AM 40.2000 -85.3333 270° West 89 102 2,300  Level Indianapolis TRACON
Sun 08:36:42 AM 40.3000 -85.4500 318° Northwest 96 110 3,100 385 Climbing Indianapolis TRACON
Sun 08:37:42 AM 40.3167 -85.4500 360° North 101 116 3,800 526 Climbing Indianapolis TRACON
Sun 08:38:36 AM 40.3333 -85.4667 323° Northwest 100 115 4,100 105 Climbing Indianapolis TRACON
Sun 08:39:36 AM 40.3667 -85.4500 21° North 136 157 4,000  Descending Indianapolis TRACON
Sun 08:40:36 AM 40.4000 -85.4333 21° North 134 154 4,100 -100 Climbing Indianapolis TRACON
Sun 08:41:36 AM 40.4167 -85.3833 66° East 150 173 3,800 -450 Descending Indianapolis TRACON
Sun 08:42:36 AM 40.3833 -85.3500 143° Southeast 147 169 3,200 -400 Descending Indianapolis TRACON
Sun 08:43:36 AM 40.3667 -85.3333 143° Southeast 128 147 3,000 -150 Descending Indianapolis TRACON
Sun 08:44:36 AM 40.3333 -85.3333 180° South 92 106 2,900 -33 Descending Indianapolis TRACON
Sun 08:46:37 AM 40.3333 -85.3333 323° Northwest 92 106 2,900  Level Indianapolis TRACON
Sun 08:48:37 AM 40.3333 -85.3333 323° Northwest 92 106 2,900 54 Level Indianapolis TRACON
Sun 08:50:00 AM 40.3174 -85.2696 108° East  Level FlightAware Approximate
Sun 08:52:13 AM 40.1833 -85.4333 67° East 110 127 3,200  Level Indianapolis TRACON
Sun 08:52:49 AM 40.1500 -85.4333 180° South 119 137 3,700 750 Climbing Indianapolis TRACON
Sun 08:53:49 AM 40.1667 -85.4000 57° Northeast 131 151 4,400 700 Climbing Indianapolis TRACON
Sun 08:54:49 AM 40.1833 -85.3500 66° East 125 144 5,100 672 Climbing Indianapolis TRACON
Sun 08:55:54 AM 40.1992 -85.3181 57° Northeast 125 144 5,800 619 Climbing Indianapolis Center
Sun 08:56:55 AM 40.2147 -85.2764 64° Northeast 128 147 6,400 590 Climbing Indianapolis Center
Sun 08:57:00 AM 40.4174 -84.9564 67° East  Level Estimated
Sun 08:57:56 AM 40.2314 -85.2375 61° Northeast 124 143 7,000  Level Indianapolis Center
Sun 08:58:26 AM 40.2419 -85.2081 65° Northeast 134 154 7,100  Climbing Indianapolis Center
Sun 08:58:56 AM 40.2531 -85.1828 60° Northeast 148 170 7,000 66 Descending Indianapolis Center
Sun 08:59:57 AM 40.2717 -85.1311 65° Northeast 155 178 7,200 97 Climbing Indianapolis Center
Sun 09:01:00 AM 40.2947 -85.0858 56° Northeast 150 173 7,200  Level Indianapolis Center
Sun 09:01:58 AM 40.3100 -85.0342 69° East 157 181 7,200  Level Indianapolis Center
Sun 09:03:02 AM 40.3311 -84.9839 61° Northeast 157 181 7,200  Level Indianapolis Center
Sun 09:04:04 AM 40.3508 -84.9347 62° Northeast 154 177 7,200 -49 Level Indianapolis Center
Sun 09:05:05 AM 40.3714 -84.8833 62° Northeast 155 178 7,100  Descending Indianapolis Center
Sun 09:06:07 AM 40.3906 -84.8311 64° Northeast 156 180 7,200 49 Climbing Indianapolis Center
Sun 09:07:08 AM 40.4103 -84.7825 62° Northeast 152 175 7,200 -49 Level Indianapolis Center
Sun 09:08:09 AM 40.4308 -84.7308 62° Northeast 155 178 7,100 -98 Descending Indianapolis Center

Login

Don't have an account? Register now (free) for customized features, flight alerts, and more!